Time;durP1;ratioP1;P1;durP2;ratioP2;P2;SDS_P1;SDS_P2;PMS_P1;PMS_P2;Temp;Humidity;BMP_temperature;BMP_pressure;BME280_temperature;BME280_humidity;BME280_pressure;Samples;Min_cycle;Max_cycle;Signal;HPM_P1;HPM_P2
2021/06/16 00:01:35;;;;;;;16.38;10.00;;;;;;;20.71;44.72;98656.44;5095121;28;20058;-79
2021/06/16 00:04:01;;;;;;;16.35;8.88;;;;;;;20.72;44.81;98651.69;5094707;28;20425;-80
2021/06/16 00:06:27;;;;;;;20.50;10.73;;;;;;;20.73;44.55;98656.91;5094649;28;20059;-80
2021/06/16 00:08:53;;;;;;;21.02;9.98;;;;;;;20.72;44.75;98651.69;5094529;28;20027;-80
2021/06/16 00:11:18;;;;;;;13.02;8.52;;;;;;;20.69;44.68;98653.19;5094625;28;20056;-80
2021/06/16 00:13:43;;;;;;;15.05;9.93;;;;;;;20.71;44.89;98647.28;5091754;28;20024;-80
2021/06/16 00:16:09;;;;;;;17.65;10.35;;;;;;;20.70;44.79;98651.25;5094446;28;20066;-80
2021/06/16 00:18:34;;;;;;;16.75;9.23;;;;;;;20.70;45.03;98651.25;5093953;28;20032;-79
2021/06/16 00:21:00;;;;;;;18.38;10.73;;;;;;;20.68;44.84;98646.84;5094172;28;20024;-80
2021/06/16 00:23:25;;;;;;;16.27;9.63;;;;;;;20.70;44.96;98643.69;5109867;28;20020;-81
2021/06/16 00:25:51;;;;;;;15.98;9.32;;;;;;;20.72;44.82;98655.28;5094497;28;20472;-80
2021/06/16 00:28:16;;;;;;;16.83;9.38;;;;;;;20.71;45.03;98656.44;5075939;28;20024;-80
2021/06/16 00:30:42;;;;;;;22.77;10.88;;;;;;;20.74;45.11;98657.72;5094188;28;20542;-81
2021/06/16 00:33:07;;;;;;;21.00;10.55;;;;;;;20.74;45.14;98654.94;5075866;28;20020;-81
2021/06/16 00:35:33;;;;;;;20.80;10.70;;;;;;;20.73;44.89;98650.53;5093958;28;20024;-81
2021/06/16 00:37:59;;;;;;;18.20;10.75;;;;;;;20.70;45.11;98654.03;5094211;28;20036;-81
2021/06/16 00:40:26;;;;;;;16.50;9.38;;;;;;;20.67;45.16;98661.13;5094087;28;20024;-81
2021/06/16 00:42:53;;;;;;;21.75;11.18;;;;;;;20.65;45.25;98660.66;5094075;28;20020;-80
2021/06/16 00:45:20;;;;;;;18.45;10.55;;;;;;;20.64;45.41;98662.66;5093983;28;20028;-81
2021/06/16 00:47:47;;;;;;;20.70;12.13;;;;;;;20.64;45.35;98648.72;5094161;28;20047;-81
2021/06/16 00:50:13;;;;;;;18.73;9.90;;;;;;;20.66;45.42;98649.16;5093971;28;20395;-81
2021/06/16 00:52:39;;;;;;;17.58;10.98;;;;;;;20.66;45.51;98643.59;5093482;28;20040;-81
2021/06/16 00:55:06;;;;;;;16.65;10.25;;;;;;;20.70;45.51;98645.66;5093578;28;20036;-81
2021/06/16 00:57:32;;;;;;;20.70;10.60;;;;;;;20.71;45.46;98639.72;5093337;28;20027;-80
2021/06/16 01:00:12;;;;;;;23.23;11.80;;;;;;;20.73;45.49;98642.97;5093641;28;20035;-81
2021/06/16 01:03:01;;;;;;;14.90;9.02;;;;;;;20.74;45.29;98638.22;5074001;28;20016;-81
2021/06/16 01:05:33;;;;;;;17.38;9.27;;;;;;;20.71;45.37;98634.16;5092436;28;20480;-81
2021/06/16 01:08:01;;;;;;;16.88;9.02;;;;;;;20.67;45.47;98631.28;5093537;28;20473;-81
2021/06/16 01:10:29;;;;;;;18.63;10.18;;;;;;;20.63;45.44;98630.38;5093526;28;20408;-81
2021/06/16 01:13:21;;;;;;;18.48;9.98;;;;;;;20.57;45.26;98642.97;5093462;28;20052;-81
2021/06/16 01:16:12;;;;;;;19.35;10.82;;;;;;;20.55;45.39;98636.13;5092993;28;20031;-81
2021/06/16 01:19:06;;;;;;;18.67;10.00;;;;;;;20.55;45.52;98633.34;5091754;28;20472;-81
2021/06/16 01:21:34;;;;;;;18.58;10.15;;;;;;;20.56;45.79;98630.19;5089935;28;20035;-80
2021/06/16 01:24:08;;;;;;;16.43;9.00;;;;;;;20.55;45.90;98636.94;5092200;28;20404;-81
2021/06/16 01:26:36;;;;;;;19.77;10.48;;;;;;;20.54;45.78;98640.88;5090911;28;20273;-81
2021/06/16 01:29:27;;;;;;;20.80;10.45;;;;;;;20.58;46.05;98636.22;5092947;28;20080;-81
2021/06/16 01:31:54;;;;;;;21.00;10.45;;;;;;;20.60;45.94;98628.31;5091143;28;20016;-80
2021/06/16 01:34:23;;;;;;;25.88;10.45;;;;;;;20.60;45.87;98631.09;5093293;28;20464;-81
2021/06/16 01:36:50;;;;;;;16.42;9.10;;;;;;;20.57;45.94;98628.22;5090830;28;20077;-81
2021/06/16 01:39:19;;;;;;;23.88;10.80;;;;;;;20.52;45.86;98635.69;5093504;28;20059;-81
2021/06/16 01:41:46;;;;;;;20.60;10.25;;;;;;;20.49;45.51;98641.16;5093507;28;20025;-81
2021/06/16 01:44:13;;;;;;;22.30;10.90;;;;;;;20.47;46.08;98638.75;5093637;28;20088;-81
2021/06/16 01:46:40;;;;;;;19.55;9.85;;;;;;;20.50;46.21;98634.41;5093221;28;20016;-81
2021/06/16 01:49:06;;;;;;;21.92;10.38;;;;;;;20.51;45.87;98631.28;5074367;28;20460;-81
2021/06/16 01:51:32;;;;;;;18.75;10.73;;;;;;;20.55;46.09;98645.28;5092511;28;20101;-81
2021/06/16 01:54:00;;;;;;;17.80;10.20;;;;;;;20.56;46.20;98634.97;5090992;28;20020;-81
2021/06/16 01:56:26;;;;;;;21.23;10.38;;;;;;;20.55;46.03;98631.38;5091377;28;20016;-82
2021/06/16 01:58:53;;;;;;;16.65;9.75;;;;;;;20.55;45.91;98633.34;5092538;28;20015;-81
2021/06/16 02:01:21;;;;;;;19.15;10.60;;;;;;;20.48;46.11;98636.75;5092288;28;20259;-81
2021/06/16 02:03:46;;;;;;;17.60;9.48;;;;;;;20.44;46.13;98630.28;5091735;28;20107;-81
2021/06/16 02:06:16;;;;;;;22.38;10.70;;;;;;;20.36;46.18;98638.47;5074039;28;20095;-81
2021/06/16 02:08:44;;;;;;;17.50;10.25;;;;;;;20.31;46.02;98641.50;5092360;28;20030;-80
2021/06/16 02:11:11;;;;;;;17.85;9.50;;;;;;;20.21;46.17;98634.47;5089745;28;20107;-81
2021/06/16 02:13:42;;;;;;;21.98;10.50;;;;;;;20.17;46.13;98633.59;5092254;28;20376;-81
2021/06/16 02:16:11;;;;;;;20.65;11.13;;;;;;;20.12;46.21;98633.84;5092061;28;20027;-81
2021/06/16 02:18:51;;;;;;;18.70;11.07;;;;;;;20.08;46.35;98635.72;5074285;28;20050;-81
2021/06/16 02:21:19;;;;;;;26.10;11.60;;;;;;;20.10;46.33;98635.34;5090737;28;20067;-81
2021/06/16 02:23:47;;;;;;;21.08;10.40;;;;;;;20.06;46.46;98633.28;5092275;28;20424;-81
2021/06/16 02:26:14;;;;;;;26.10;10.88;;;;;;;20.02;46.46;98639.91;5092066;28;20111;-81
2021/06/16 02:28:40;;;;;;;20.42;11.75;;;;;;;19.98;46.57;98636.22;5092064;28;20464;-81
2021/06/16 02:31:06;;;;;;;26.60;11.80;;;;;;;19.95;46.38;98632.19;5092115;28;20528;-81
2021/06/16 02:33:31;;;;;;;23.90;11.10;;;;;;;19.91;46.82;98632.06;5091787;28;20091;-81
2021/06/16 02:35:57;;;;;;;20.15;11.10;;;;;;;19.88;46.68;98629.16;5092204;28;20028;-81
2021/06/16 02:38:28;;;;;;;22.60;11.23;;;;;;;19.84;46.93;98639.38;5091987;28;20032;-81
2021/06/16 02:40:53;;;;;;;28.30;12.93;;;;;;;;;;5089914;28;20472;-81
2021/06/16 02:43:21;;;;;;;26.50;12.02;;;;;;;19.73;46.85;98642.66;5073686;28;20024;-81
2021/06/16 02:45:48;;;;;;;23.08;12.45;;;;;;;19.72;47.05;98643.03;5091765;28;20085;-81
2021/06/16 02:48:14;;;;;;;22.55;12.07;;;;;;;19.70;46.98;98640.59;5091730;28;20085;-81
2021/06/16 02:50:42;;;;;;;24.20;10.95;;;;;;;19.69;47.12;98644.53;5091620;28;20162;-81
2021/06/16 02:53:13;;;;;;;23.05;12.30;;;;;;;19.64;47.21;98648.38;5091722;28;20484;-82
2021/06/16 02:55:39;;;;;;;21.13;12.00;;;;;;;19.61;47.37;98651.88;5089842;28;20686;-81
2021/06/16 02:58:06;;;;;;;24.20;13.32;;;;;;;19.58;47.38;98654.53;5073307;28;20118;-81
2021/06/16 03:00:32;;;;;;;26.52;12.98;;;;;;;19.51;47.50;98646.78;5091547;28;20032;-81
2021/06/16 03:03:00;;;;;;;24.50;12.52;;;;;;;19.45;47.62;98654.59;5091676;28;20107;-81
2021/06/16 03:05:27;;;;;;;30.10;14.13;;;;;;;19.40;47.72;98654.81;5091742;28;20024;-81
2021/06/16 03:07:57;;;;;;;29.60;14.00;;;;;;;19.37;47.73;98665.81;5091498;28;20020;-81
2021/06/16 03:10:23;;;;;;;23.70;12.38;;;;;;;19.34;47.87;98664.56;5091606;28;20021;-81
2021/06/16 03:12:51;;;;;;;34.88;15.98;;;;;;;19.31;48.08;98660.53;5089381;28;20032;-81
2021/06/16 03:15:16;;;;;;;26.92;13.60;;;;;;;19.32;48.09;98653.81;5092067;28;20357;-82
2021/06/16 03:17:44;;;;;;;27.10;14.20;;;;;;;19.34;48.30;98657.03;5092590;28;20027;-81
2021/06/16 03:20:11;;;;;;;26.20;12.05;;;;;;;19.34;48.15;98668.16;5088974;28;20036;-81
2021/06/16 03:22:38;;;;;;;24.25;12.35;;;;;;;19.27;48.19;98664.34;5091830;28;20019;-81
2021/06/16 03:25:04;;;;;;;31.73;13.07;;;;;;;19.22;48.33;98662.63;5091995;28;20047;-81
2021/06/16 03:27:31;;;;;;;35.78;15.73;;;;;;;19.23;48.53;98663.41;5089003;28;20576;-81
2021/06/16 03:29:58;;;;;;;35.25;15.80;;;;;;;19.23;48.49;98650.34;5095876;28;20028;-81
2021/06/16 03:32:24;;;;;;;32.83;14.85;;;;;;;19.23;48.61;98667.00;5096201;28;20089;-82
2021/06/16 03:34:49;;;;;;;33.53;15.15;;;;;;;19.24;48.71;98667.81;5097264;28;20042;-82
2021/06/16 03:37:16;;;;;;;30.58;16.42;;;;;;;19.21;48.84;98657.38;5097220;28;20032;-81
2021/06/16 03:39:42;;;;;;;34.83;18.02;;;;;;;19.22;48.88;98657.06;5096965;28;20020;-82
2021/06/16 03:42:08;;;;;;;42.03;21.55;;;;;;;19.25;49.10;98663.88;5097029;28;20417;-81
2021/06/16 03:44:35;;;;;;;38.75;19.90;;;;;;;19.27;48.99;98665.16;5097074;28;20084;-81
2021/06/16 03:47:05;;;;;;;40.53;20.02;;;;;;;19.27;48.91;98661.56;5097078;28;20028;-81
2021/06/16 03:49:32;;;;;;;41.53;20.40;;;;;;;19.26;49.06;98662.72;5096959;28;20028;-81
2021/06/16 03:51:58;;;;;;;49.75;23.40;;;;;;;19.26;49.02;98673.84;5096754;28;20044;-81
2021/06/16 03:54:27;;;;;;;47.95;22.05;;;;;;;19.25;49.12;98675.00;5096880;28;20023;-81
2021/06/16 03:56:54;;;;;;;45.33;23.67;;;;;;;19.25;49.43;98677.78;5096866;28;20018;-81
2021/06/16 03:59:21;;;;;;;51.90;25.05;;;;;;;19.27;49.55;98676.28;5096979;28;20433;-81
2021/06/16 04:01:46;;;;;;;52.92;25.50;;;;;;;19.32;49.71;98675.22;5096617;28;20020;-81
2021/06/16 04:04:13;;;;;;;47.85;22.23;;;;;;;19.37;49.66;98677.75;5096190;28;20472;-81
2021/06/16 04:06:43;;;;;;;46.70;24.60;;;;;;;19.47;49.77;98671.72;5077771;28;20020;-81
2021/06/16 04:09:11;;;;;;;40.88;21.90;;;;;;;19.53;50.10;98672.28;5095962;28;20024;-81
2021/06/16 04:11:38;;;;;;;45.78;23.33;;;;;;;19.60;50.01;98675.28;5096035;28;20024;-80
2021/06/16 04:14:03;;;;;;;44.20;23.05;;;;;;;19.67;50.37;98671.09;5096142;28;20368;-80
2021/06/16 04:16:29;;;;;;;46.17;22.98;;;;;;;19.70;50.25;98670.41;5095906;28;20024;-80
2021/06/16 04:18:55;;;;;;;47.65;24.33;;;;;;;19.73;50.28;98673.28;5096026;28;20472;-80
2021/06/16 04:21:22;;;;;;;45.22;23.88;;;;;;;19.81;50.56;98674.28;5095794;28;20016;-82
2021/06/16 04:23:51;;;;;;;45.30;23.17;;;;;;;19.88;50.27;98682.06;5095668;28;20028;-82
2021/06/16 04:26:20;;;;;;;44.75;22.23;;;;;;;19.91;50.58;98679.38;5095988;28;20107;-82
2021/06/16 04:28:45;;;;;;;39.22;21.88;;;;;;;19.95;50.72;98676.72;5095850;28;20089;-82
2021/06/16 04:31:12;;;;;;;41.70;22.40;;;;;;;19.97;50.71;98679.94;5095731;28;20024;-82
2021/06/16 04:33:37;;;;;;;42.47;23.55;;;;;;;20.00;50.72;98682.00;5095687;28;20020;-82
2021/06/16 04:36:04;;;;;;;39.92;22.85;;;;;;;20.04;50.67;98682.13;5095813;28;20440;-81
2021/06/16 04:38:29;;;;;;;37.60;20.60;;;;;;;20.09;50.87;98687.44;5095724;28;20028;-81
2021/06/16 04:40:55;;;;;;;44.13;22.35;;;;;;;20.12;50.71;98694.28;5076060;28;20031;-81
2021/06/16 04:43:20;;;;;;;44.25;24.15;;;;;;;20.14;50.76;98689.16;5095401;28;20020;-81
2021/06/16 04:45:46;;;;;;;42.40;22.42;;;;;;;20.14;50.74;98698.34;5095384;28;20063;-81
2021/06/16 04:48:11;;;;;;;44.47;24.10;;;;;;;20.21;50.62;98692.94;5095133;28;20024;-80
2021/06/16 04:50:37;;;;;;;41.83;22.02;;;;;;;20.29;50.87;98701.50;5095252;28;20024;-81
2021/06/16 04:53:02;;;;;;;44.17;20.23;;;;;;;20.36;50.43;98694.19;5111695;28;20024;-82
2021/06/16 04:55:28;;;;;;;45.22;20.95;;;;;;;20.37;50.52;98693.00;5095461;28;20027;-84
2021/06/16 04:57:53;;;;;;;42.78;21.08;;;;;;;20.42;50.30;98691.09;5095308;28;20430;-79
2021/06/16 05:00:21;;;;;;;44.40;20.35;;;;;;;20.46;50.05;98700.38;5094974;28;20051;-81
2021/06/16 05:02:47;;;;;;;36.67;19.80;;;;;;;20.43;49.92;98696.34;5095088;28;20020;-78
2021/06/16 05:05:12;;;;;;;37.42;20.58;;;;;;;20.46;49.67;98687.25;5095076;28;20030;-80
2021/06/16 05:07:38;;;;;;;35.97;18.50;;;;;;;20.52;49.87;98690.59;5095051;28;20469;-79
2021/06/16 05:10:05;;;;;;;41.15;20.45;;;;;;;20.56;49.58;98690.69;5094947;28;20028;-79
2021/06/16 05:12:31;;;;;;;44.60;21.40;;;;;;;20.61;49.67;98693.19;5095029;28;20016;-80
2021/06/16 05:14:56;;;;;;;31.42;17.75;;;;;;;20.67;49.62;98691.75;5094535;28;20477;-79
2021/06/16 05:17:22;;;;;;;33.97;18.02;;;;;;;20.72;49.91;98697.06;5094819;28;20541;-79
2021/06/16 05:19:55;;;;;;;32.30;17.77;;;;;;;20.74;49.58;98697.53;5094654;28;20016;-79
2021/06/16 05:22:20;;;;;;;33.00;18.48;;;;;;;20.81;49.46;98703.31;5094475;28;20027;-78
2021/06/16 05:24:46;;;;;;;34.33;17.95;;;;;;;20.88;49.57;98702.69;5094409;28;20024;-78
2021/06/16 05:27:14;;;;;;;37.42;20.05;;;;;;;20.93;49.48;98705.22;5094442;28;20024;-79
2021/06/16 05:29:40;;;;;;;38.45;18.98;;;;;;;20.99;49.40;98700.16;5094256;28;20036;-78
2021/06/16 05:32:05;;;;;;;39.03;19.05;;;;;;;21.07;49.37;98703.94;5094528;28;20028;-78
2021/06/16 05:34:31;;;;;;;35.20;18.35;;;;;;;21.09;48.94;98707.97;5094475;28;20084;-79
2021/06/16 05:36:56;;;;;;;32.03;16.88;;;;;;;21.14;49.29;98704.13;5094444;28;20106;-78
2021/06/16 05:39:22;;;;;;;43.33;18.98;;;;;;;21.19;49.07;98709.44;5094244;28;20028;-78
2021/06/16 05:41:49;;;;;;;43.17;19.13;;;;;;;21.26;49.07;98708.78;5094260;28;20160;-78
2021/06/16 05:44:14;;;;;;;38.63;19.98;;;;;;;21.31;49.11;98705.72;5093931;28;20031;-78
2021/06/16 05:46:39;;;;;;;38.05;19.30;;;;;;;21.36;48.99;98699.88;5093662;28;20024;-77
2021/06/16 05:49:05;;;;;;;34.92;18.50;;;;;;;21.40;48.79;98695.16;5093977;28;20118;-77
2021/06/16 05:51:30;;;;;;;37.55;19.02;;;;;;;21.47;48.89;98699.28;5093262;28;20084;-78
2021/06/16 05:53:55;;;;;;;30.98;17.80;;;;;;;21.55;48.78;98698.28;5094183;28;20468;-78
2021/06/16 05:56:21;;;;;;;38.78;19.30;;;;;;;21.59;49.16;98703.97;5094080;28;20069;-79
2021/06/16 05:58:46;;;;;;;35.95;18.50;;;;;;;21.63;48.69;98696.47;5094293;28;20028;-80
2021/06/16 06:01:11;;;;;;;33.17;16.90;;;;;;;21.66;48.67;98704.13;5094285;28;20081;-80
2021/06/16 06:03:37;;;;;;;35.47;18.27;;;;;;;21.71;48.76;98707.47;5093922;28;20032;-80
2021/06/16 06:06:03;;;;;;;30.50;17.73;;;;;;;21.80;48.50;98703.66;5094152;28;20105;-79
2021/06/16 06:08:29;;;;;;;32.55;17.90;;;;;;;21.87;48.62;98712.16;5093827;28;20028;-80
2021/06/16 06:10:57;;;;;;;33.45;17.40;;;;;;;21.85;48.56;98717.28;5093824;28;20028;-77
2021/06/16 06:13:23;;;;;;;38.33;18.48;;;;;;;21.91;48.48;98709.47;5093770;28;20373;-78
2021/06/16 06:15:48;;;;;;;33.85;18.75;;;;;;;21.96;48.58;98701.59;5075285;28;20430;-78
2021/06/16 06:18:13;;;;;;;34.42;17.98;;;;;;;22.03;48.58;98712.09;5093513;28;20024;-79
2021/06/16 06:20:39;;;;;;;36.47;18.50;;;;;;;22.09;48.57;98710.63;5093572;28;20035;-78
2021/06/16 06:23:04;;;;;;;36.42;16.60;;;;;;;22.13;48.55;98702.34;5093574;28;20028;-78
2021/06/16 06:25:29;;;;;;;38.30;17.75;;;;;;;22.19;48.53;98712.03;5093548;28;20020;-79
2021/06/16 06:27:55;;;;;;;33.92;18.50;;;;;;;22.26;48.54;98708.56;5093471;28;20028;-80
2021/06/16 06:30:20;;;;;;;39.30;18.73;;;;;;;22.33;48.32;98713.47;5093415;28;20491;-78
2021/06/16 06:32:46;;;;;;;35.08;17.80;;;;;;;22.37;48.47;98708.75;5092916;28;20382;-78
2021/06/16 06:35:11;;;;;;;35.58;19.02;;;;;;;22.43;48.63;98707.28;5093452;28;20064;-79
2021/06/16 06:37:37;;;;;;;36.35;18.23;;;;;;;22.50;48.51;98710.25;5075232;28;20024;-79
2021/06/16 06:40:04;;;;;;;31.90;18.58;;;;;;;22.57;48.33;98706.78;5093312;28;20594;-77
2021/06/16 06:42:29;;;;;;;33.15;17.35;;;;;;;22.60;48.19;98718.03;5093067;28;20438;-77
2021/06/16 06:44:54;;;;;;;29.92;15.82;;;;;;;22.63;48.17;98708.09;5093265;28;20028;-77
2021/06/16 06:47:21;;;;;;;27.20;15.75;;;;;;;22.65;47.96;98721.69;5089781;28;20391;-79
2021/06/16 06:49:46;;;;;;;36.40;19.83;;;;;;;22.67;47.91;98710.94;5072616;28;20027;-77
2021/06/16 06:52:12;;;;;;;31.23;18.48;;;;;;;22.69;48.21;98711.38;5091981;28;20495;-79
2021/06/16 06:54:37;;;;;;;34.08;17.45;;;;;;;22.70;48.24;98713.81;5091928;28;20027;-75
2021/06/16 06:57:03;;;;;;;33.20;17.45;;;;;;;22.76;48.29;98719.91;5092231;28;20024;-76
2021/06/16 06:59:29;;;;;;;35.20;18.85;;;;;;;22.83;48.42;98713.63;5092065;28;20074;-76
2021/06/16 07:01:54;;;;;;;34.95;18.23;;;;;;;22.89;48.67;98718.53;5091764;28;20024;-75
2021/06/16 07:04:19;;;;;;;32.45;19.58;;;;;;;22.92;48.60;98716.19;5091092;28;20035;-75
2021/06/16 07:06:45;;;;;;;40.17;21.33;;;;;;;22.90;48.70;98719.34;5091889;28;20115;-78
2021/06/16 07:09:10;;;;;;;37.40;19.52;;;;;;;22.93;48.65;98717.78;5073799;28;20463;-78
2021/06/16 07:11:36;;;;;;;34.22;18.23;;;;;;;22.99;48.71;98719.09;5091662;28;20081;-76
2021/06/16 07:14:01;;;;;;;38.88;19.95;;;;;;;23.03;48.61;98717.16;5091619;28;20028;-75
2021/06/16 07:16:26;;;;;;;28.33;17.65;;;;;;;23.04;48.42;98724.34;5088356;28;20101;-75
2021/06/16 07:18:52;;;;;;;31.92;19.50;;;;;;;23.08;48.36;98725.22;5086562;28;20020;-75
2021/06/16 07:21:18;;;;;;;29.80;17.75;;;;;;;23.15;48.38;98716.97;5090115;28;20493;-76
2021/06/16 07:23:43;;;;;;;35.47;17.33;;;;;;;23.20;48.20;98725.03;5084657;28;20054;-75
2021/06/16 07:26:09;;;;;;;24.73;14.13;;;;;;;23.26;47.90;98728.34;5069384;28;20032;-75
2021/06/16 07:28:34;;;;;;;17.95;10.13;;;;;;;23.31;47.60;98719.63;5089869;28;20131;-79
2021/06/16 07:31:00;;;;;;;24.42;13.27;;;;;;;23.33;47.23;98720.06;5089753;28;20028;-75
2021/06/16 07:33:25;;;;;;;21.00;10.85;;;;;;;23.35;46.58;98722.50;5091299;28;20032;-76
2021/06/16 07:35:50;;;;;;;20.08;9.65;;;;;;;23.37;46.38;98730.50;5092435;28;20118;-75
2021/06/16 07:38:16;;;;;;;22.95;11.05;;;;;;;23.33;45.73;98722.06;5089960;28;20021;-76
2021/06/16 07:40:41;;;;;;;19.38;9.68;;;;;;;23.34;45.48;98720.91;5089764;28;20024;-76
2021/06/16 07:43:07;;;;;;;20.17;11.60;;;;;;;23.33;45.06;98722.88;5090570;28;20048;-74
2021/06/16 07:45:32;;;;;;;25.00;12.43;;;;;;;23.35;44.87;98722.50;5089668;28;20234;-75
2021/06/16 07:47:58;;;;;;;25.77;14.13;;;;;;;23.36;44.79;98721.31;5089660;28;20021;-76
2021/06/16 07:50:25;;;;;;;25.67;14.23;;;;;;;23.37;44.54;98720.16;5089470;28;20269;-76
2021/06/16 07:52:51;;;;;;;29.50;15.02;;;;;;;23.42;44.49;98724.59;5089791;28;20089;-75
2021/06/16 07:55:17;;;;;;;27.08;15.95;;;;;;;23.46;44.73;98728.25;5085475;28;20440;-75
2021/06/16 07:57:42;;;;;;;31.92;15.27;;;;;;;23.56;44.89;98722.03;5071541;28;20035;-75
2021/06/16 08:00:08;;;;;;;38.55;17.05;;;;;;;23.68;44.92;98731.38;5089656;28;20028;-76
2021/06/16 08:02:33;;;;;;;28.17;15.23;;;;;;;23.75;44.83;98723.88;5071869;28;20028;-77
2021/06/16 08:04:59;;;;;;;29.20;15.90;;;;;;;23.83;44.67;98727.59;5089678;28;20047;-75
2021/06/16 08:07:25;;;;;;;20.60;12.35;;;;;;;23.91;44.32;98736.88;5089426;28;20115;-76
2021/06/16 08:09:51;;;;;;;22.63;13.15;;;;;;;23.94;44.40;98728.53;5089574;28;20031;-77
2021/06/16 08:12:16;;;;;;;21.25;12.55;;;;;;;23.99;44.28;98727.41;5089432;28;20036;-74
2021/06/16 08:14:42;;;;;;;20.10;12.05;;;;;;;23.98;43.84;98737.00;5088622;28;20020;-74
2021/06/16 08:17:07;;;;;;;25.70;12.57;;;;;;;24.01;43.90;98729.84;5093271;28;20388;-77
2021/06/16 08:19:34;;;;;;;22.23;12.20;;;;;;;24.07;43.64;98731.13;5078836;28;20028;-77
2021/06/16 08:22:00;;;;;;;24.10;11.55;;;;;;;24.16;43.72;98734.44;5093065;28;20455;-75
2021/06/16 08:24:26;;;;;;;18.55;11.05;;;;;;;24.25;43.58;98739.75;5092547;28;20074;-75
2021/06/16 08:26:51;;;;;;;21.45;11.63;;;;;;;24.35;43.20;98738.28;5092747;28;20028;-77
2021/06/16 08:29:17;;;;;;;21.65;11.27;;;;;;;24.43;43.36;98742.78;5074817;28;20395;-79
2021/06/16 08:31:42;;;;;;;21.52;11.35;;;;;;;24.49;42.82;98737.63;5091617;28;20089;-79
2021/06/16 08:34:08;;;;;;;20.27;11.45;;;;;;;24.53;42.91;98741.28;5093242;28;20078;-74
2021/06/16 08:36:33;;;;;;;18.27;10.60;;;;;;;24.59;42.52;98745.34;5089760;28;20024;-81
2021/06/16 08:38:58;;;;;;;21.58;11.52;;;;;;;24.66;42.58;98737.00;5093831;28;20028;-82
2021/06/16 08:41:26;;;;;;;15.77;8.88;;;;;;;24.73;42.50;98735.47;5074794;28;20138;-84
2021/06/16 08:43:52;;;;;;;19.85;10.27;;;;;;;24.79;41.89;98733.94;5092138;28;20028;-87
2021/06/16 08:46:18;;;;;;;18.73;10.27;;;;;;;24.85;42.21;98732.41;5092315;28;20035;-82
2021/06/16 08:48:45;;;;;;;20.33;11.68;;;;;;;24.91;42.14;98739.28;5091932;28;20504;-86
2021/06/16 08:51:13;;;;;;;24.50;12.13;;;;;;;25.00;42.04;98735.34;5091024;28;20036;-81
2021/06/16 08:53:39;;;;;;;19.35;11.30;;;;;;;25.07;42.31;98736.22;5091118;28;20035;-81
2021/06/16 08:56:04;;;;;;;25.83;11.30;;;;;;;25.17;42.01;98737.50;5092157;28;20103;-87
2021/06/16 08:58:35;;;;;;;20.65;10.85;;;;;;;25.20;41.48;98739.53;5091707;28;20032;-81
2021/06/16 09:01:01;;;;;;;20.88;11.90;;;;;;;25.23;41.43;98737.97;5091699;28;20020;-80
2021/06/16 09:03:27;;;;;;;20.83;11.02;;;;;;;25.31;41.33;98730.38;5092060;28;20041;-89
2021/06/16 09:05:52;;;;;;;18.67;11.60;;;;;;;25.39;41.72;98734.88;5092142;28;20236;-87
2021/06/16 09:08:23;;;;;;;20.35;11.10;;;;;;;25.47;41.31;98742.19;5074286;28;20447;-86
2021/06/16 09:10:51;;;;;;;26.25;12.45;;;;;;;25.56;41.12;98741.84;5092155;28;20533;-82
2021/06/16 09:13:29;;;;;;;22.80;11.35;;;;;;;25.68;41.67;98737.88;5092421;28;20020;-85
2021/06/16 09:15:55;;;;;;;21.58;11.65;;;;;;;25.77;41.63;98743.97;5091587;28;20024;-76
2021/06/16 09:18:20;;;;;;;22.63;11.18;;;;;;;25.86;41.22;98741.63;5092251;28;20024;-79
2021/06/16 09:20:47;;;;;;;25.20;12.18;;;;;;;25.93;41.25;98748.44;5092024;28;20042;-77
2021/06/16 09:23:29;;;;;;;20.48;10.95;;;;;;;25.97;40.67;98747.28;5091830;28;20105;-82
2021/06/16 09:26:20;;;;;;;21.88;12.68;;;;;;;26.02;40.36;98746.09;5090160;28;20067;-78
2021/06/16 09:28:49;;;;;;;23.33;11.55;;;;;;;26.06;40.76;98734.88;5092076;28;20024;-79
2021/06/16 09:31:15;;;;;;;;;;;;;;;26.13;40.68;98743.34;5090572;28;20392;-79
2021/06/16 09:33:42;;;;;;;24.10;12.88;;;;;;;26.18;40.12;98739.38;5091297;28;19916;-80
2021/06/16 09:36:15;;;;;;;16.08;9.80;;;;;;;26.25;40.21;98743.00;5090703;28;20031;-79
2021/06/16 09:38:47;;;;;;;21.38;11.52;;;;;;;26.33;40.51;98732.59;5093067;28;20020;-79
2021/06/16 09:41:14;;;;;;;21.75;11.68;;;;;;;26.41;40.07;98730.63;5092375;28;20027;-80
2021/06/16 09:43:41;;;;;;;18.45;11.15;;;;;;;26.44;39.84;98736.25;5072160;28;20032;-79
2021/06/16 09:46:10;;;;;;;20.00;10.98;;;;;;;26.51;39.72;98737.47;5091687;28;20036;-81
2021/06/16 09:48:41;;;;;;;23.38;12.15;;;;;;;26.52;39.37;98737.06;5092123;28;20024;-80
2021/06/16 09:51:09;;;;;;;27.70;12.45;;;;;;;26.54;39.16;98740.28;5090373;28;20039;-79
2021/06/16 09:54:11;;;;;;;27.80;14.30;;;;;;;26.53;38.76;98735.06;5091908;28;20085;-81
2021/06/16 09:56:38;;;;;;;29.73;13.23;;;;;;;26.56;38.74;98737.88;5073436;28;20503;-81
2021/06/16 09:59:04;;;;;;;31.98;15.00;;;;;;;26.56;38.05;98731.47;5092844;28;20028;-80
2021/06/16 10:01:54;;;;;;;27.30;14.77;;;;;;;26.56;38.21;98729.44;5091600;28;20077;-80
2021/06/16 10:04:41;;;;;;;23.77;11.88;;;;;;;26.64;39.08;98726.66;5092373;28;20024;-80
2021/06/16 10:07:23;;;;;;;26.52;14.43;;;;;;;26.78;39.09;98723.06;5091772;28;20036;-80
2021/06/16 10:10:00;;;;;;;28.23;13.55;;;;;;;26.89;39.30;98715.47;5092006;28;20028;-81
2021/06/16 10:12:36;;;;;;;24.33;12.90;;;;;;;27.03;39.31;98723.13;5073389;28;20379;-81
2021/06/16 10:15:15;;;;;;;25.48;13.65;;;;;;;27.18;39.44;98729.53;5092748;28;20531;-80
2021/06/16 10:17:41;;;;;;;32.03;13.93;;;;;;;27.31;39.51;98729.94;5092530;28;20488;-79
2021/06/16 10:20:08;;;;;;;49.17;14.98;;;;;;;27.43;39.24;98731.56;5074460;28;20494;-79
2021/06/16 10:22:34;;;;;;;25.80;12.20;;;;;;;27.51;39.06;98730.34;5086674;28;20423;-82
2021/06/16 10:25:00;;;;;;;25.15;12.70;;;;;;;27.61;39.09;98732.34;5092284;28;20028;-85
2021/06/16 10:27:34;;;;;;;28.25;15.07;;;;;;;27.73;38.96;98733.94;5091628;28;20115;-79
2021/06/16 10:30:09;;;;;;;28.17;14.23;;;;;;;27.79;38.80;98725.88;5090416;28;20031;-73
2021/06/16 10:32:37;;;;;;;25.65;14.27;;;;;;;27.90;38.93;98732.28;5093277;28;20024;-73
2021/06/16 10:35:04;;;;;;;27.85;13.65;;;;;;;28.01;38.88;98732.25;5093167;28;20028;-72
2021/06/16 10:37:36;;;;;;;22.80;12.63;;;;;;;28.13;38.90;98733.84;5091769;28;20092;-70
2021/06/16 10:40:15;;;;;;;31.00;15.27;;;;;;;28.21;38.50;98729.78;5090217;28;22175;-74
2021/06/16 10:42:59;;;;;;;32.05;16.08;;;;;;;28.19;37.86;98729.38;5092335;28;20024;-70
2021/06/16 10:45:37;;;;;;;26.00;15.60;;;;;;;28.15;37.34;98725.78;5088760;28;20032;-71
2021/06/16 10:48:06;;;;;;;34.15;18.60;;;;;;;28.06;36.77;98729.00;5089021;28;20031;-71
2021/06/16 10:50:46;;;;;;;29.90;16.30;;;;;;;28.00;36.77;98733.47;5089401;28;20031;-73
2021/06/16 10:53:24;;;;;;;27.23;15.45;;;;;;;27.97;36.53;98728.63;5090426;28;20451;-72
2021/06/16 10:55:55;;;;;;;29.20;15.25;;;;;;;27.98;36.92;98729.44;5090398;28;20251;-71
2021/06/16 10:58:25;;;;;;;35.80;16.17;;;;;;;27.98;36.82;98723.78;5090566;28;20043;-72
2021/06/16 11:01:15;;;;;;;32.58;16.90;;;;;;;28.06;36.81;98728.19;5089916;28;20448;-71
2021/06/16 11:03:47;;;;;;;36.25;17.92;;;;;;;28.05;36.69;98721.78;5089939;28;20024;-71
2021/06/16 11:06:36;;;;;;;32.83;16.33;;;;;;;28.14;37.18;98712.88;5089772;28;20081;-71
2021/06/16 11:09:10;;;;;;;30.08;16.25;;;;;;;28.23;37.17;98718.09;5089700;28;20043;-73
2021/06/16 11:11:50;;;;;;;32.63;17.13;;;;;;;28.31;36.81;98719.66;5089663;28;20121;-72
2021/06/16 11:14:37;;;;;;;24.55;14.50;;;;;;;28.37;36.55;98717.19;5089774;28;20051;-72
2021/06/16 11:17:07;;;;;;;29.33;15.55;;;;;;;28.36;36.19;98715.59;5088920;28;20384;-73
2021/06/16 11:19:35;;;;;;;29.77;16.20;;;;;;;28.36;36.30;98710.78;5071289;28;20020;-72
2021/06/16 11:22:27;;;;;;;37.30;18.65;;;;;;;28.40;36.19;98699.47;5089147;28;20032;-72
2021/06/16 11:25:12;;;;;;;32.95;16.05;;;;;;;28.46;36.22;98702.66;5077701;28;20492;-71